sensor_id;sensor_type;location;lat;lon;timestamp;P1;durP1;ratioP1;P2;durP2;ratioP2
11431;SDS011;5772;50.940;6.782;2022-09-09T00:00:17;30.43;;;29.23;;
11431;SDS011;5772;50.940;6.782;2022-09-09T00:02:44;28.77;;;27.67;;
11431;SDS011;5772;50.940;6.782;2022-09-09T00:05:15;28.27;;;27.13;;
11431;SDS011;5772;50.940;6.782;2022-09-09T00:07:45;30.70;;;29.40;;
11431;SDS011;5772;50.940;6.782;2022-09-09T00:10:17;27.83;;;26.73;;
11431;SDS011;5772;50.940;6.782;2022-09-09T00:12:48;29.23;;;28.13;;
11431;SDS011;5772;50.940;6.782;2022-09-09T00:15:19;29.03;;;27.50;;
11431;SDS011;5772;50.940;6.782;2022-09-09T00:17:47;30.43;;;29.23;;
11431;SDS011;5772;50.940;6.782;2022-09-09T00:20:16;33.73;;;32.43;;
11431;SDS011;5772;50.940;6.782;2022-09-09T00:22:48;32.30;;;30.90;;
11431;SDS011;5772;50.940;6.782;2022-09-09T00:25:17;30.17;;;28.97;;
11431;SDS011;5772;50.940;6.782;2022-09-09T00:27:47;34.90;;;33.50;;
11431;SDS011;5772;50.940;6.782;2022-09-09T00:30:14;39.43;;;37.53;;
11431;SDS011;5772;50.940;6.782;2022-09-09T00:32:43;40.03;;;38.33;;
11431;SDS011;5772;50.940;6.782;2022-09-09T00:35:14;44.83;;;43.00;;
11431;SDS011;5772;50.940;6.782;2022-09-09T00:37:42;38.37;;;36.57;;
11431;SDS011;5772;50.940;6.782;2022-09-09T00:40:11;40.83;;;39.23;;
11431;SDS011;5772;50.940;6.782;2022-09-09T00:42:43;41.23;;;39.53;;
11431;SDS011;5772;50.940;6.782;2022-09-09T00:45:12;43.37;;;41.63;;
11431;SDS011;5772;50.940;6.782;2022-09-09T00:47:46;44.00;;;42.17;;
11431;SDS011;5772;50.940;6.782;2022-09-09T00:50:34;45.67;;;43.87;;
11431;SDS011;5772;50.940;6.782;2022-09-09T00:53:06;37.30;;;35.73;;
11431;SDS011;5772;50.940;6.782;2022-09-09T00:55:38;35.63;;;33.93;;
11431;SDS011;5772;50.940;6.782;2022-09-09T00:58:07;32.53;;;30.90;;
11431;SDS011;5772;50.940;6.782;2022-09-09T01:00:34;32.23;;;30.70;;
11431;SDS011;5772;50.940;6.782;2022-09-09T01:03:12;33.67;;;32.27;;
11431;SDS011;5772;50.940;6.782;2022-09-09T01:05:45;34.27;;;32.87;;
11431;SDS011;5772;50.940;6.782;2022-09-09T01:08:17;34.40;;;33.10;;
11431;SDS011;5772;50.940;6.782;2022-09-09T01:11:01;33.53;;;32.23;;
11431;SDS011;5772;50.940;6.782;2022-09-09T01:13:27;31.73;;;30.50;;
11431;SDS011;5772;50.940;6.782;2022-09-09T01:15:54;31.50;;;30.30;;
11431;SDS011;5772;50.940;6.782;2022-09-09T01:18:21;30.37;;;29.10;;
11431;SDS011;5772;50.940;6.782;2022-09-09T01:20:49;28.63;;;27.47;;
11431;SDS011;5772;50.940;6.782;2022-09-09T01:23:26;29.87;;;28.67;;
11431;SDS011;5772;50.940;6.782;2022-09-09T01:26:26;28.77;;;27.47;;
11431;SDS011;5772;50.940;6.782;2022-09-09T07:07:37;32.67;;;31.03;;
11431;SDS011;5772;50.940;6.782;2022-09-09T07:10:02;33.37;;;32.07;;
11431;SDS011;5772;50.940;6.782;2022-09-09T07:12:28;30.53;;;29.23;;
11431;SDS011;5772;50.940;6.782;2022-09-09T07:14:54;24.53;;;23.20;;
11431;SDS011;5772;50.940;6.782;2022-09-09T07:17:19;18.90;;;18.10;;
11431;SDS011;5772;50.940;6.782;2022-09-09T07:19:44;21.63;;;20.73;;
11431;SDS011;5772;50.940;6.782;2022-09-09T07:22:10;25.23;;;24.13;;
11431;SDS011;5772;50.940;6.782;2022-09-09T07:24:36;27.08;;;26.05;;
11431;SDS011;5772;50.940;6.782;2022-09-09T07:27:02;26.67;;;25.50;;
11431;SDS011;5772;50.940;6.782;2022-09-09T07:29:27;23.92;;;22.95;;
11431;SDS011;5772;50.940;6.782;2022-09-09T07:31:53;21.95;;;20.65;;
11431;SDS011;5772;50.940;6.782;2022-09-09T07:34:18;18.23;;;17.42;;
11431;SDS011;5772;50.940;6.782;2022-09-09T07:36:43;14.05;;;13.55;;
11431;SDS011;5772;50.940;6.782;2022-09-09T07:39:10;13.63;;;12.93;;
11431;SDS011;5772;50.940;6.782;2022-09-09T07:41:38;13.68;;;13.18;;
11431;SDS011;5772;50.940;6.782;2022-09-09T07:44:04;13.68;;;13.13;;
11431;SDS011;5772;50.940;6.782;2022-09-09T07:46:31;14.15;;;13.15;;
11431;SDS011;5772;50.940;6.782;2022-09-09T07:48:56;19.20;;;18.30;;
11431;SDS011;5772;50.940;6.782;2022-09-09T07:51:22;20.95;;;19.85;;
11431;SDS011;5772;50.940;6.782;2022-09-09T07:53:51;21.08;;;20.08;;
11431;SDS011;5772;50.940;6.782;2022-09-09T07:56:18;19.70;;;18.92;;
11431;SDS011;5772;50.940;6.782;2022-09-09T07:58:45;21.50;;;20.55;;
11431;SDS011;5772;50.940;6.782;2022-09-09T08:01:17;20.55;;;19.65;;
11431;SDS011;5772;50.940;6.782;2022-09-09T08:03:44;21.30;;;20.20;;
11431;SDS011;5772;50.940;6.782;2022-09-09T08:06:10;22.27;;;21.25;;
11431;SDS011;5772;50.940;6.782;2022-09-09T08:08:36;20.15;;;19.35;;
11431;SDS011;5772;50.940;6.782;2022-09-09T08:11:02;19.33;;;18.52;;
11431;SDS011;5772;50.940;6.782;2022-09-09T08:13:29;19.17;;;18.08;;
11431;SDS011;5772;50.940;6.782;2022-09-09T08:15:56;18.60;;;17.63;;
11431;SDS011;5772;50.940;6.782;2022-09-09T08:18:29;19.63;;;18.73;;
11431;SDS011;5772;50.940;6.782;2022-09-09T08:20:54;18.40;;;17.40;;
11431;SDS011;5772;50.940;6.782;2022-09-09T08:23:19;18.23;;;17.43;;
11431;SDS011;5772;50.940;6.782;2022-09-09T08:25:45;16.70;;;16.10;;
11431;SDS011;5772;50.940;6.782;2022-09-09T08:28:10;16.70;;;16.00;;
11431;SDS011;5772;50.940;6.782;2022-09-09T08:30:35;17.27;;;16.48;;
11431;SDS011;5772;50.940;6.782;2022-09-09T08:33:02;18.42;;;17.63;;
11431;SDS011;5772;50.940;6.782;2022-09-09T08:35:28;18.90;;;18.10;;
11431;SDS011;5772;50.940;6.782;2022-09-09T08:37:53;19.60;;;18.80;;
11431;SDS011;5772;50.940;6.782;2022-09-09T08:40:20;21.17;;;20.37;;
11431;SDS011;5772;50.940;6.782;2022-09-09T08:42:49;21.27;;;20.47;;
11431;SDS011;5772;50.940;6.782;2022-09-09T08:45:23;20.27;;;19.47;;
11431;SDS011;5772;50.940;6.782;2022-09-09T08:47:54;20.93;;;20.13;;
11431;SDS011;5772;50.940;6.782;2022-09-09T08:50:29;21.97;;;20.87;;
11431;SDS011;5772;50.940;6.782;2022-09-09T08:52:57;22.35;;;21.23;;
11431;SDS011;5772;50.940;6.782;2022-09-09T08:55:28;20.85;;;19.95;;
11431;SDS011;5772;50.940;6.782;2022-09-09T08:58:09;21.95;;;21.02;;
11431;SDS011;5772;50.940;6.782;2022-09-09T09:00:40;21.80;;;20.77;;
11431;SDS011;5772;50.940;6.782;2022-09-09T09:03:14;20.98;;;20.17;;
11431;SDS011;5772;50.940;6.782;2022-09-09T09:05:44;22.10;;;21.05;;
11431;SDS011;5772;50.940;6.782;2022-09-09T09:08:15;22.15;;;21.25;;
11431;SDS011;5772;50.940;6.782;2022-09-09T09:10:45;23.52;;;22.52;;
11431;SDS011;5772;50.940;6.782;2022-09-09T09:13:12;22.92;;;22.02;;
11431;SDS011;5772;50.940;6.782;2022-09-09T09:15:39;22.48;;;21.58;;
11431;SDS011;5772;50.940;6.782;2022-09-09T09:18:07;24.38;;;23.35;;
11431;SDS011;5772;50.940;6.782;2022-09-09T09:20:38;25.08;;;23.88;;
11431;SDS011;5772;50.940;6.782;2022-09-09T09:23:09;24.60;;;23.63;;
11431;SDS011;5772;50.940;6.782;2022-09-09T09:25:41;22.63;;;21.73;;
11431;SDS011;5772;50.940;6.782;2022-09-09T09:28:10;21.50;;;20.60;;
11431;SDS011;5772;50.940;6.782;2022-09-09T09:30:39;22.08;;;20.98;;
11431;SDS011;5772;50.940;6.782;2022-09-09T09:33:05;22.77;;;21.77;;
11431;SDS011;5772;50.940;6.782;2022-09-09T09:35:37;20.53;;;19.73;;
11431;SDS011;5772;50.940;6.782;2022-09-09T09:38:05;17.20;;;16.53;;
11431;SDS011;5772;50.940;6.782;2022-09-09T09:40:47;19.60;;;18.70;;
11431;SDS011;5772;50.940;6.782;2022-09-09T09:43:16;18.03;;;17.23;;
11431;SDS011;5772;50.940;6.782;2022-09-09T09:45:44;18.10;;;17.37;;
11431;SDS011;5772;50.940;6.782;2022-09-09T09:48:10;16.10;;;15.50;;
11431;SDS011;5772;50.940;6.782;2022-09-09T09:50:46;15.83;;;15.17;;
11431;SDS011;5772;50.940;6.782;2022-09-09T09:53:17;16.73;;;16.03;;
11431;SDS011;5772;50.940;6.782;2022-09-09T09:55:46;15.23;;;14.63;;
11431;SDS011;5772;50.940;6.782;2022-09-09T09:58:16;17.47;;;16.67;;
11431;SDS011;5772;50.940;6.782;2022-09-09T10:00:46;15.40;;;14.73;;
11431;SDS011;5772;50.940;6.782;2022-09-09T10:03:14;16.03;;;15.43;;
11431;SDS011;5772;50.940;6.782;2022-09-09T10:05:47;16.27;;;15.67;;
11431;SDS011;5772;50.940;6.782;2022-09-09T10:08:14;15.57;;;14.97;;
11431;SDS011;5772;50.940;6.782;2022-09-09T10:10:44;16.27;;;15.67;;
11431;SDS011;5772;50.940;6.782;2022-09-09T10:13:35;17.05;;;16.38;;
11431;SDS011;5772;50.940;6.782;2022-09-09T10:16:08;16.60;;;16.00;;
11431;SDS011;5772;50.940;6.782;2022-09-09T10:18:43;18.15;;;17.35;;
11431;SDS011;5772;50.940;6.782;2022-09-09T10:21:19;17.67;;;16.87;;
11431;SDS011;5772;50.940;6.782;2022-09-09T10:23:54;18.73;;;17.93;;
11431;SDS011;5772;50.940;6.782;2022-09-09T10:26:36;18.53;;;17.63;;
11431;SDS011;5772;50.940;6.782;2022-09-09T10:29:10;17.70;;;17.00;;
11431;SDS011;5772;50.940;6.782;2022-09-09T10:31:47;18.27;;;17.57;;
11431;SDS011;5772;50.940;6.782;2022-09-09T10:34:21;17.50;;;16.80;;
11431;SDS011;5772;50.940;6.782;2022-09-09T10:36:53;13.80;;;13.25;;
11431;SDS011;5772;50.940;6.782;2022-09-09T10:39:24;16.92;;;16.33;;
11431;SDS011;5772;50.940;6.782;2022-09-09T10:41:58;17.83;;;17.13;;
11431;SDS011;5772;50.940;6.782;2022-09-09T10:44:30;18.58;;;17.77;;
11431;SDS011;5772;50.940;6.782;2022-09-09T10:47:14;19.42;;;18.52;;
11431;SDS011;5772;50.940;6.782;2022-09-09T10:49:52;22.88;;;21.92;;
11431;SDS011;5772;50.940;6.782;2022-09-09T10:52:31;22.50;;;21.60;;
11431;SDS011;5772;50.940;6.782;2022-09-09T10:54:59;22.13;;;21.10;;
11431;SDS011;5772;50.940;6.782;2022-09-09T10:57:29;22.90;;;22.00;;
11431;SDS011;5772;50.940;6.782;2022-09-09T10:59:58;24.55;;;23.58;;
11431;SDS011;5772;50.940;6.782;2022-09-09T11:02:28;25.38;;;24.10;;
11431;SDS011;5772;50.940;6.782;2022-09-09T11:04:55;25.42;;;24.33;;
11431;SDS011;5772;50.940;6.782;2022-09-09T11:07:25;25.10;;;24.05;;
11431;SDS011;5772;50.940;6.782;2022-09-09T11:09:55;25.48;;;24.38;;
11431;SDS011;5772;50.940;6.782;2022-09-09T11:12:23;27.70;;;26.50;;
11431;SDS011;5772;50.940;6.782;2022-09-09T11:14:49;26.95;;;25.85;;
11431;SDS011;5772;50.940;6.782;2022-09-09T11:17:17;28.42;;;27.00;;
11431;SDS011;5772;50.940;6.782;2022-09-09T11:19:44;26.85;;;25.77;;
11431;SDS011;5772;50.940;6.782;2022-09-09T11:22:14;26.23;;;24.83;;
11431;SDS011;5772;50.940;6.782;2022-09-09T11:24:43;25.23;;;24.23;;
11431;SDS011;5772;50.940;6.782;2022-09-09T11:27:13;25.80;;;24.80;;
11431;SDS011;5772;50.940;6.782;2022-09-09T11:29:47;25.40;;;24.40;;
11431;SDS011;5772;50.940;6.782;2022-09-09T11:32:34;25.95;;;24.95;;
11431;SDS011;5772;50.940;6.782;2022-09-09T11:35:18;25.48;;;24.48;;
11431;SDS011;5772;50.940;6.782;2022-09-09T11:37:53;26.13;;;25.13;;
11431;SDS011;5772;50.940;6.782;2022-09-09T11:40:28;25.13;;;24.13;;
11431;SDS011;5772;50.940;6.782;2022-09-09T11:43:05;27.35;;;26.25;;
11431;SDS011;5772;50.940;6.782;2022-09-09T11:45:34;26.63;;;25.52;;
11431;SDS011;5772;50.940;6.782;2022-09-09T11:48:01;25.10;;;24.10;;
11431;SDS011;5772;50.940;6.782;2022-09-09T11:50:28;25.30;;;24.30;;
11431;SDS011;5772;50.940;6.782;2022-09-09T11:53:06;27.60;;;26.50;;
11431;SDS011;5772;50.940;6.782;2022-09-09T11:55:43;26.83;;;25.63;;
11431;SDS011;5772;50.940;6.782;2022-09-09T11:58:15;26.10;;;24.80;;
11431;SDS011;5772;50.940;6.782;2022-09-09T12:00:42;29.33;;;28.20;;
11431;SDS011;5772;50.940;6.782;2022-09-09T12:03:08;27.45;;;26.35;;
11431;SDS011;5772;50.940;6.782;2022-09-09T12:05:58;29.90;;;28.57;;
11431;SDS011;5772;50.940;6.782;2022-09-09T12:08:25;25.67;;;24.60;;
11431;SDS011;5772;50.940;6.782;2022-09-09T12:10:53;26.23;;;25.03;;
11431;SDS011;5772;50.940;6.782;2022-09-09T12:13:21;24.70;;;23.63;;
11431;SDS011;5772;50.940;6.782;2022-09-09T12:15:48;23.30;;;22.40;;
11431;SDS011;5772;50.940;6.782;2022-09-09T12:18:14;22.07;;;21.13;;
11431;SDS011;5772;50.940;6.782;2022-09-09T12:20:50;23.07;;;22.07;;
11431;SDS011;5772;50.940;6.782;2022-09-09T12:23:22;22.97;;;22.07;;
11431;SDS011;5772;50.940;6.782;2022-09-09T12:25:57;22.87;;;21.87;;
11431;SDS011;5772;50.940;6.782;2022-09-09T12:28:27;20.07;;;19.13;;
11431;SDS011;5772;50.940;6.782;2022-09-09T12:31:04;17.13;;;16.43;;
11431;SDS011;5772;50.940;6.782;2022-09-09T12:33:33;28.97;;;27.40;;
11431;SDS011;5772;50.940;6.782;2022-09-09T12:35:59;31.97;;;30.50;;
11431;SDS011;5772;50.940;6.782;2022-09-09T12:38:26;29.47;;;28.17;;
11431;SDS011;5772;50.940;6.782;2022-09-09T12:40:57;38.23;;;36.73;;
11431;SDS011;5772;50.940;6.782;2022-09-09T12:43:24;26.20;;;25.20;;
11431;SDS011;5772;50.940;6.782;2022-09-09T12:45:53;23.50;;;22.30;;
11431;SDS011;5772;50.940;6.782;2022-09-09T12:48:20;26.00;;;24.67;;
11431;SDS011;5772;50.940;6.782;2022-09-09T12:50:46;21.13;;;20.07;;
11431;SDS011;5772;50.940;6.782;2022-09-09T12:53:16;29.80;;;28.55;;
11431;SDS011;5772;50.940;6.782;2022-09-09T12:55:49;45.60;;;43.80;;
11431;SDS011;5772;50.940;6.782;2022-09-09T12:58:14;36.92;;;35.33;;
11431;SDS011;5772;50.940;6.782;2022-09-09T13:00:49;20.08;;;19.27;;
11431;SDS011;5772;50.940;6.782;2022-09-09T13:03:17;21.23;;;20.33;;
11431;SDS011;5772;50.940;6.782;2022-09-09T13:05:43;18.90;;;17.92;;
11431;SDS011;5772;50.940;6.782;2022-09-09T13:08:09;23.10;;;22.20;;
11431;SDS011;5772;50.940;6.782;2022-09-09T13:10:37;19.02;;;18.23;;
11431;SDS011;5772;50.940;6.782;2022-09-09T13:13:05;17.42;;;16.70;;
11431;SDS011;5772;50.940;6.782;2022-09-09T13:15:38;33.83;;;32.25;;
11431;SDS011;5772;50.940;6.782;2022-09-09T13:18:05;36.88;;;35.42;;
11431;SDS011;5772;50.940;6.782;2022-09-09T13:20:32;37.08;;;35.55;;
11431;SDS011;5772;50.940;6.782;2022-09-09T13:22:57;36.30;;;34.45;;
11431;SDS011;5772;50.940;6.782;2022-09-09T13:25:23;34.10;;;32.70;;
11431;SDS011;5772;50.940;6.782;2022-09-09T13:27:57;29.17;;;27.98;;
11431;SDS011;5772;50.940;6.782;2022-09-09T13:30:24;17.50;;;16.80;;
11431;SDS011;5772;50.940;6.782;2022-09-09T13:33:02;17.05;;;16.35;;
11431;SDS011;5772;50.940;6.782;2022-09-09T13:35:31;17.00;;;16.30;;
11431;SDS011;5772;50.940;6.782;2022-09-09T13:37:56;28.63;;;27.52;;
11431;SDS011;5772;50.940;6.782;2022-09-09T13:40:22;31.23;;;29.92;;
11431;SDS011;5772;50.940;6.782;2022-09-09T13:42:50;26.13;;;25.10;;
11431;SDS011;5772;50.940;6.782;2022-09-09T13:45:18;26.98;;;25.77;;
11431;SDS011;5772;50.940;6.782;2022-09-09T13:47:45;31.17;;;29.98;;
11431;SDS011;5772;50.940;6.782;2022-09-09T13:50:19;29.95;;;28.75;;
11431;SDS011;5772;50.940;6.782;2022-09-09T13:52:45;27.90;;;26.80;;
11431;SDS011;5772;50.940;6.782;2022-09-09T13:55:10;30.67;;;29.37;;
11431;SDS011;5772;50.940;6.782;2022-09-09T13:57:35;30.67;;;29.47;;
11431;SDS011;5772;50.940;6.782;2022-09-09T14:00:01;31.07;;;29.67;;
11431;SDS011;5772;50.940;6.782;2022-09-09T14:02:27;28.23;;;27.13;;
11431;SDS011;5772;50.940;6.782;2022-09-09T14:04:52;26.70;;;25.60;;
11431;SDS011;5772;50.940;6.782;2022-09-09T14:07:19;24.33;;;23.33;;
11431;SDS011;5772;50.940;6.782;2022-09-09T14:09:44;29.53;;;28.33;;
11431;SDS011;5772;50.940;6.782;2022-09-09T14:12:10;30.13;;;28.57;;
11431;SDS011;5772;50.940;6.782;2022-09-09T14:14:36;35.33;;;33.57;;
11431;SDS011;5772;50.940;6.782;2022-09-09T14:17:01;36.07;;;34.60;;
11431;SDS011;5772;50.940;6.782;2022-09-09T14:19:27;30.03;;;28.67;;
11431;SDS011;5772;50.940;6.782;2022-09-09T14:21:52;31.20;;;30.00;;
11431;SDS011;5772;50.940;6.782;2022-09-09T14:24:19;31.77;;;30.47;;
11431;SDS011;5772;50.940;6.782;2022-09-09T14:26:44;24.90;;;23.80;;
11431;SDS011;5772;50.940;6.782;2022-09-09T14:29:09;32.07;;;30.70;;
11431;SDS011;5772;50.940;6.782;2022-09-09T14:31:35;38.27;;;36.77;;
11431;SDS011;5772;50.940;6.782;2022-09-09T14:34:00;50.70;;;48.60;;
11431;SDS011;5772;50.940;6.782;2022-09-09T14:36:25;59.83;;;57.37;;
11431;SDS011;5772;50.940;6.782;2022-09-09T14:38:51;70.77;;;68.00;;
11431;SDS011;5772;50.940;6.782;2022-09-09T14:41:18;70.43;;;67.43;;
11431;SDS011;5772;50.940;6.782;2022-09-09T14:43:44;48.70;;;46.70;;
11431;SDS011;5772;50.940;6.782;2022-09-09T14:46:11;47.00;;;45.00;;
11431;SDS011;5772;50.940;6.782;2022-09-09T14:48:37;56.47;;;54.00;;
11431;SDS011;5772;50.940;6.782;2022-09-09T14:51:06;704.03;;;369.13;;
11431;SDS011;5772;50.940;6.782;2022-09-09T14:53:32;1999.90;;;999.90;;
11431;SDS011;5772;50.940;6.782;2022-09-09T14:56:02;1999.90;;;999.90;;
11431;SDS011;5772;50.940;6.782;2022-09-09T14:58:31;1999.90;;;999.90;;
11431;SDS011;5772;50.940;6.782;2022-09-09T15:01:01;1999.90;;;999.90;;
11431;SDS011;5772;50.940;6.782;2022-09-09T15:03:27;57.80;;;55.50;;
11431;SDS011;5772;50.940;6.782;2022-09-09T15:05:52;60.00;;;57.60;;
11431;SDS011;5772;50.940;6.782;2022-09-09T15:08:18;1999.90;;;999.90;;
11431;SDS011;5772;50.940;6.782;2022-09-09T15:10:43;710.07;;;375.00;;
11431;SDS011;5772;50.940;6.782;2022-09-09T15:13:08;706.30;;;371.40;;
11431;SDS011;5772;50.940;6.782;2022-09-09T15:15:35;1999.90;;;999.90;;
11431;SDS011;5772;50.940;6.782;2022-09-09T15:18:00;52.53;;;50.23;;
11431;SDS011;5772;50.940;6.782;2022-09-09T15:20:26;38.23;;;36.70;;
11431;SDS011;5772;50.940;6.782;2022-09-09T15:22:51;702.80;;;368.03;;
11431;SDS011;5772;50.940;6.782;2022-09-09T15:25:16;36.33;;;34.93;;
11431;SDS011;5772;50.940;6.782;2022-09-09T15:27:42;37.20;;;35.70;;
11431;SDS011;5772;50.940;6.782;2022-09-09T15:30:08;35.63;;;34.23;;
11431;SDS011;5772;50.940;6.782;2022-09-09T15:32:35;37.13;;;35.63;;
11431;SDS011;5772;50.940;6.782;2022-09-09T15:35:00;39.63;;;38.03;;
11431;SDS011;5772;50.940;6.782;2022-09-09T15:37:26;35.50;;;34.10;;
11431;SDS011;5772;50.940;6.782;2022-09-09T15:39:51;38.90;;;37.33;;
11431;SDS011;5772;50.940;6.782;2022-09-09T15:42:16;38.90;;;37.40;;
11431;SDS011;5772;50.940;6.782;2022-09-09T15:44:42;36.00;;;34.60;;
11431;SDS011;5772;50.940;6.782;2022-09-09T15:47:07;36.67;;;35.17;;
11431;SDS011;5772;50.940;6.782;2022-09-09T15:49:37;36.80;;;35.30;;
11431;SDS011;5772;50.940;6.782;2022-09-09T15:52:02;37.70;;;36.20;;
11431;SDS011;5772;50.940;6.782;2022-09-09T15:54:27;33.60;;;32.20;;
11431;SDS011;5772;50.940;6.782;2022-09-09T15:56:57;37.97;;;36.47;;
11431;SDS011;5772;50.940;6.782;2022-09-09T15:59:23;33.97;;;32.57;;
11431;SDS011;5772;50.940;6.782;2022-09-09T16:01:50;34.80;;;33.47;;
11431;SDS011;5772;50.940;6.782;2022-09-09T16:04:15;36.50;;;34.90;;
11431;SDS011;5772;50.940;6.782;2022-09-09T16:06:42;34.87;;;33.50;;
11431;SDS011;5772;50.940;6.782;2022-09-09T16:09:07;37.30;;;35.83;;
11431;SDS011;5772;50.940;6.782;2022-09-09T16:11:33;33.57;;;32.07;;
11431;SDS011;5772;50.940;6.782;2022-09-09T16:14:00;35.97;;;34.47;;
11431;SDS011;5772;50.940;6.782;2022-09-09T16:16:26;37.70;;;36.20;;
11431;SDS011;5772;50.940;6.782;2022-09-09T16:18:53;35.43;;;34.03;;
11431;SDS011;5772;50.940;6.782;2022-09-09T16:21:20;37.43;;;35.93;;
11431;SDS011;5772;50.940;6.782;2022-09-09T16:23:48;39.07;;;37.23;;
11431;SDS011;5772;50.940;6.782;2022-09-09T16:26:14;36.67;;;35.17;;
11431;SDS011;5772;50.940;6.782;2022-09-09T16:28:41;35.70;;;34.10;;
11431;SDS011;5772;50.940;6.782;2022-09-09T16:31:07;37.37;;;35.60;;
11431;SDS011;5772;50.940;6.782;2022-09-09T16:33:33;37.90;;;36.30;;
11431;SDS011;5772;50.940;6.782;2022-09-09T16:36:01;38.13;;;36.63;;
11431;SDS011;5772;50.940;6.782;2022-09-09T16:38:30;38.10;;;36.57;;
11431;SDS011;5772;50.940;6.782;2022-09-09T16:40:59;36.73;;;35.23;;
11431;SDS011;5772;50.940;6.782;2022-09-09T16:43:25;38.80;;;37.20;;
11431;SDS011;5772;50.940;6.782;2022-09-09T16:45:50;38.93;;;37.23;;
11431;SDS011;5772;50.940;6.782;2022-09-09T16:48:15;40.33;;;38.73;;
11431;SDS011;5772;50.940;6.782;2022-09-09T16:50:41;37.67;;;36.07;;
11431;SDS011;5772;50.940;6.782;2022-09-09T16:53:06;38.13;;;36.63;;
11431;SDS011;5772;50.940;6.782;2022-09-09T16:55:31;36.43;;;34.97;;
11431;SDS011;5772;50.940;6.782;2022-09-09T16:57:58;35.53;;;33.90;;
11431;SDS011;5772;50.940;6.782;2022-09-09T17:00:24;39.10;;;37.50;;
11431;SDS011;5772;50.940;6.782;2022-09-09T17:02:49;37.00;;;35.53;;
11431;SDS011;5772;50.940;6.782;2022-09-09T17:05:14;36.73;;;35.23;;
11431;SDS011;5772;50.940;6.782;2022-09-09T17:07:40;36.17;;;34.77;;
11431;SDS011;5772;50.940;6.782;2022-09-09T17:10:05;37.13;;;35.63;;
11431;SDS011;5772;50.940;6.782;2022-09-09T17:12:32;37.47;;;35.97;;
11431;SDS011;5772;50.940;6.782;2022-09-09T17:14:59;40.17;;;38.57;;
11431;SDS011;5772;50.940;6.782;2022-09-09T17:17:24;37.70;;;36.23;;
11431;SDS011;5772;50.940;6.782;2022-09-09T17:19:50;38.27;;;36.70;;
11431;SDS011;5772;50.940;6.782;2022-09-09T17:22:15;39.10;;;37.53;;
11431;SDS011;5772;50.940;6.782;2022-09-09T17:24:40;35.90;;;34.50;;
11431;SDS011;5772;50.940;6.782;2022-09-09T17:27:06;37.07;;;35.50;;
11431;SDS011;5772;50.940;6.782;2022-09-09T17:29:31;33.27;;;31.87;;
11431;SDS011;5772;50.940;6.782;2022-09-09T17:31:58;30.30;;;29.10;;
11431;SDS011;5772;50.940;6.782;2022-09-09T17:34:23;31.03;;;29.83;;
11431;SDS011;5772;50.940;6.782;2022-09-09T17:36:49;30.97;;;29.77;;
11431;SDS011;5772;50.940;6.782;2022-09-09T17:39:14;34.60;;;33.07;;
11431;SDS011;5772;50.940;6.782;2022-09-09T17:41:40;32.93;;;31.57;;
11431;SDS011;5772;50.940;6.782;2022-09-09T17:44:05;32.00;;;30.70;;
11431;SDS011;5772;50.940;6.782;2022-09-09T17:46:32;34.70;;;33.30;;
11431;SDS011;5772;50.940;6.782;2022-09-09T17:49:00;35.00;;;33.50;;
11431;SDS011;5772;50.940;6.782;2022-09-09T17:51:27;35.20;;;33.50;;
11431;SDS011;5772;50.940;6.782;2022-09-09T17:53:55;34.53;;;33.23;;
11431;SDS011;5772;50.940;6.782;2022-09-09T17:56:21;36.37;;;34.87;;
11431;SDS011;5772;50.940;6.782;2022-09-09T17:58:47;36.90;;;35.40;;
11431;SDS011;5772;50.940;6.782;2022-09-09T18:01:14;35.00;;;33.40;;
11431;SDS011;5772;50.940;6.782;2022-09-09T18:03:41;34.80;;;33.23;;
11431;SDS011;5772;50.940;6.782;2022-09-09T18:06:09;34.33;;;32.97;;
11431;SDS011;5772;50.940;6.782;2022-09-09T18:08:35;36.77;;;35.13;;
11431;SDS011;5772;50.940;6.782;2022-09-09T18:11:01;34.30;;;32.73;;
11431;SDS011;5772;50.940;6.782;2022-09-09T18:13:27;34.97;;;33.43;;
11431;SDS011;5772;50.940;6.782;2022-09-09T18:15:52;36.07;;;34.63;;
11431;SDS011;5772;50.940;6.782;2022-09-09T18:18:18;37.13;;;35.63;;
11431;SDS011;5772;50.940;6.782;2022-09-09T18:20:43;32.83;;;31.43;;
11431;SDS011;5772;50.940;6.782;2022-09-09T18:23:11;30.13;;;28.93;;
11431;SDS011;5772;50.940;6.782;2022-09-09T18:25:37;39.73;;;38.03;;
11431;SDS011;5772;50.940;6.782;2022-09-09T18:28:03;1999.90;;;999.90;;
11431;SDS011;5772;50.940;6.782;2022-09-09T18:30:28;691.63;;;357.30;;
11431;SDS011;5772;50.940;6.782;2022-09-09T18:32:53;1999.90;;;999.90;;
11431;SDS011;5772;50.940;6.782;2022-09-09T18:35:19;1999.90;;;999.90;;
11431;SDS011;5772;50.940;6.782;2022-09-09T18:37:45;1999.90;;;999.90;;
11431;SDS011;5772;50.940;6.782;2022-09-09T18:40:12;1999.90;;;999.90;;
11431;SDS011;5772;50.940;6.782;2022-09-09T18:42:37;1999.90;;;999.90;;
11431;SDS011;5772;50.940;6.782;2022-09-09T18:45:03;1999.90;;;999.90;;
11431;SDS011;5772;50.940;6.782;2022-09-09T18:47:29;1999.90;;;999.90;;
11431;SDS011;5772;50.940;6.782;2022-09-09T18:49:54;1999.90;;;999.90;;
11431;SDS011;5772;50.940;6.782;2022-09-09T18:52:20;1999.90;;;999.90;;
11431;SDS011;5772;50.940;6.782;2022-09-09T18:54:45;1999.90;;;999.90;;
11431;SDS011;5772;50.940;6.782;2022-09-09T18:57:12;1999.90;;;999.90;;
11431;SDS011;5772;50.940;6.782;2022-09-09T18:59:37;1999.90;;;999.90;;
11431;SDS011;5772;50.940;6.782;2022-09-09T19:02:02;1999.90;;;999.90;;
11431;SDS011;5772;50.940;6.782;2022-09-09T19:04:29;1999.90;;;999.90;;
11431;SDS011;5772;50.940;6.782;2022-09-09T19:06:54;1999.90;;;999.90;;
11431;SDS011;5772;50.940;6.782;2022-09-09T19:09:20;1999.90;;;999.90;;
11431;SDS011;5772;50.940;6.782;2022-09-09T19:11:45;1999.90;;;999.90;;
11431;SDS011;5772;50.940;6.782;2022-09-09T19:14:13;1999.90;;;999.90;;
11431;SDS011;5772;50.940;6.782;2022-09-09T19:16:39;1999.90;;;999.90;;
11431;SDS011;5772;50.940;6.782;2022-09-09T19:19:06;1999.90;;;999.90;;
11431;SDS011;5772;50.940;6.782;2022-09-09T19:21:34;1999.90;;;999.90;;
11431;SDS011;5772;50.940;6.782;2022-09-09T19:24:01;1999.90;;;999.90;;
11431;SDS011;5772;50.940;6.782;2022-09-09T19:26:28;1999.90;;;999.90;;
11431;SDS011;5772;50.940;6.782;2022-09-09T19:28:56;1999.90;;;999.90;;
11431;SDS011;5772;50.940;6.782;2022-09-09T19:31:23;1999.90;;;999.90;;
11431;SDS011;5772;50.940;6.782;2022-09-09T19:33:49;1999.90;;;999.90;;
11431;SDS011;5772;50.940;6.782;2022-09-09T19:36:17;1999.90;;;999.90;;
11431;SDS011;5772;50.940;6.782;2022-09-09T19:38:43;1999.90;;;999.90;;
11431;SDS011;5772;50.940;6.782;2022-09-09T19:41:09;1999.90;;;999.90;;
11431;SDS011;5772;50.940;6.782;2022-09-09T19:43:36;1999.90;;;999.90;;
11431;SDS011;5772;50.940;6.782;2022-09-09T19:46:02;1999.90;;;999.90;;
11431;SDS011;5772;50.940;6.782;2022-09-09T19:48:30;1999.90;;;999.90;;
11431;SDS011;5772;50.940;6.782;2022-09-09T19:50:59;1999.90;;;999.90;;
11431;SDS011;5772;50.940;6.782;2022-09-09T19:53:25;1999.90;;;999.90;;
11431;SDS011;5772;50.940;6.782;2022-09-09T19:55:50;1999.90;;;999.90;;
11431;SDS011;5772;50.940;6.782;2022-09-09T19:58:16;1999.90;;;999.90;;
11431;SDS011;5772;50.940;6.782;2022-09-09T20:00:41;1999.90;;;999.90;;
11431;SDS011;5772;50.940;6.782;2022-09-09T20:03:07;1999.90;;;999.90;;
11431;SDS011;5772;50.940;6.782;2022-09-09T20:05:33;1999.90;;;999.90;;
11431;SDS011;5772;50.940;6.782;2022-09-09T20:07:59;1999.90;;;999.90;;
11431;SDS011;5772;50.940;6.782;2022-09-09T20:10:24;1999.90;;;999.90;;
11431;SDS011;5772;50.940;6.782;2022-09-09T20:12:50;1999.90;;;999.90;;